Time;durP1;ratioP1;P1;durP2;ratioP2;P2;SDS_P1;SDS_P2;PMS_P1;PMS_P2;Temp;Humidity;BMP_temperature;BMP_pressure;BME280_temperature;BME280_humidity;BME280_pressure;Samples;Min_cycle;Max_cycle;Signal;HPM_P1;HPM_P2
2022/07/02 00:02:23;;;;;;;;;;;;;;;24.19;44.27;101117.53;1700088;82;27472;-56
2022/07/02 00:04:59;;;;;;;;;;;;;;;24.20;44.23;101116.48;1696215;82;25876;-55
2022/07/02 00:07:27;;;;;;;;;;;;;;;24.18;44.14;101123.23;1695537;83;25830;-55
2022/07/02 00:09:55;;;;;;;;;;;;;;;24.16;44.29;101124.00;1690091;82;26002;-55
2022/07/02 00:12:26;;;;;;;;;;;;;;;24.15;44.20;101122.31;1687432;83;25724;-55
2022/07/02 00:14:56;;;;;;;;;;;;;;;24.14;44.19;101121.45;1696272;83;28257;-55
2022/07/02 00:17:23;;;;;;;;;;;;;;;24.11;44.58;101121.05;1700277;82;25855;-55
2022/07/02 00:19:51;;;;;;;;;;;;;;;24.09;44.55;101128.15;1698423;82;25848;-55
2022/07/02 00:22:19;;;;;;;;;;;;;;;24.07;44.33;101122.02;1700694;83;25790;-55
2022/07/02 00:24:46;;;;;;;;;;;;;;;24.04;44.45;101124.67;1700157;82;26080;-54
2022/07/02 00:27:16;;;;;;;;;;;;;;;24.02;45.21;101126.80;1710098;83;27461;-55
2022/07/02 00:29:52;;;;;;;;;;;;;;;23.98;44.90;101124.15;1702832;83;26028;-55
2022/07/02 00:32:19;;;;;;;;;;;;;;;23.94;45.25;101122.91;1696077;83;25803;-53
2022/07/02 00:34:47;;;;;;;;;;;;;;;23.91;45.39;101124.68;1702493;83;25813;-54
2022/07/02 00:37:14;;;;;;;;;;;;;;;23.88;45.35;101131.45;1695157;82;25721;-54
2022/07/02 00:39:41;;;;;;;;;;;;;;;23.87;45.31;101137.18;1708810;82;27497;-55
2022/07/02 00:42:09;;;;;;;;;;;;;;;23.85;45.40;101131.05;1710876;82;25883;-55
2022/07/02 00:44:37;;;;;;;;;;;;;;;23.80;45.51;101130.32;1709020;81;25748;-55
2022/07/02 00:47:07;;;;;;;;;;;;;;;23.76;46.03;101125.80;1717069;82;25946;-55
2022/07/02 00:49:37;;;;;;;;;;;;;;;23.68;45.99;101132.89;1711725;82;25806;-54
2022/07/02 00:52:05;;;;;;;;;;;;;;;23.58;46.30;101136.06;1724766;80;28499;-54
2022/07/02 00:54:32;;;;;;;;;;;;;;;23.50;46.23;101136.83;1727166;81;25923;-55
2022/07/02 00:56:59;;;;;;;;;;;;;;;23.42;46.50;101131.89;1728514;80;25820;-54
2022/07/02 00:59:25;;;;;;;;;;;;;;;23.32;46.93;101131.98;1730065;81;26650;-54
2022/07/02 01:01:52;;;;;;;;;;;;;;;23.19;47.10;101129.58;1738641;81;25784;-54
2022/07/02 01:04:19;;;;;;;;;;;;;;;23.14;47.12;101135.67;1726004;81;27468;-53
2022/07/02 01:06:48;;;;;;;;;;;;;;;23.09;47.51;101140.92;1732721;81;25488;-55
2022/07/02 01:12:03;;;;;;;;;;;;;;;23.00;47.68;101149.59;1727059;81;26388;-56
2022/07/02 01:14:30;;;;;;;;;;;;;;;22.93;48.21;101155.92;1719876;82;26197;-55
2022/07/02 01:16:57;;;;;;;;;;;;;;;22.90;48.27;101142.61;1724374;80;27491;-56
2022/07/02 01:19:24;;;;;;;;;;;;;;;22.87;48.19;101149.88;1720192;82;25824;-54
2022/07/02 01:22:17;;;;;;;;;;;;;;;22.83;48.17;101159.05;1726125;82;25530;-55
2022/07/02 01:24:46;;;;;;;;;;;;;;;22.82;48.38;101162.84;1724920;81;25797;-56
2022/07/02 01:27:14;;;;;;;;;;;;;;;22.79;48.83;101157.80;1736534;81;25900;-56
2022/07/02 01:29:40;;;;;;;;;;;;;;;22.77;49.04;101156.33;1728783;80;28174;-55
2022/07/02 01:32:08;;;;;;;;;;;;;;;22.76;49.46;101164.23;1723611;81;25868;-55
2022/07/02 01:34:40;;;;;;;;;;;;;;;22.75;49.29;101162.53;1718112;81;25739;-56
2022/07/02 01:37:09;;;;;;;;;;;;;;;22.73;49.32;101163.27;1715855;82;26436;-56
2022/07/02 01:39:38;;;;;;;;;;;;;;;22.69;49.47;101158.72;1708592;82;25808;-56
2022/07/02 01:42:06;;;;;;;;;;;;;;;22.66;49.68;101162.73;1725356;81;27551;-55
2022/07/02 01:44:34;;;;;;;;;;;;;;;22.62;49.99;101160.07;1729913;81;25898;-55
2022/07/02 01:47:02;;;;;;;;;;;;;;;22.57;50.42;101163.97;1699524;81;25805;-54
2022/07/02 01:49:29;;;;;;;;;;;;;;;22.54;50.83;101167.11;1686628;83;26674;-55
2022/07/02 01:51:56;;;;;;;;;;;;;;;22.54;50.83;101168.48;1702155;81;26202;-55
2022/07/02 01:54:23;;;;;;;;;;;;;;;22.52;50.63;101176.06;1733832;81;27485;-54
2022/07/02 01:56:50;;;;;;;;;;;;;;;22.50;50.91;101180.39;1727650;81;25740;-55
2022/07/02 01:59:16;;;;;;;;;;;;;;;22.51;50.99;101181.22;1727713;81;25444;-54
2022/07/02 02:01:43;;;;;;;;;;;;;;;22.50;51.27;101176.81;1720767;81;25848;-55
2022/07/02 02:04:10;;;;;;;;;;;;;;;22.50;50.85;101174.91;1733017;81;25743;-55
2022/07/02 02:06:38;;;;;;;;;;;;;;;22.52;51.69;101178.80;1732396;80;27445;-54
2022/07/02 02:09:04;;;;;;;;;;;;;;;22.51;51.54;101177.97;1733291;80;25462;-55
2022/07/02 02:11:32;;;;;;;;;;;;;;;22.51;51.82;101179.85;1721227;82;25739;-54
2022/07/02 02:13:59;;;;;;;;;;;;;;;22.54;51.56;101178.62;1732859;81;25879;-55
2022/07/02 02:16:26;;;;;;;;;;;;;;;22.53;51.60;101176.38;1728070;81;25700;-53
2022/07/02 02:18:54;;;;;;;;;;;;;;;22.54;51.73;101178.08;1729629;81;27482;-54
2022/07/02 02:21:25;;;;;;;;;;;;;;;22.53;51.54;101168.70;1732144;81;25695;-55
2022/07/02 02:23:53;;;;;;;;;;;;;;;22.53;51.95;101167.33;1730290;80;25452;-54
2022/07/02 02:26:21;;;;;;;;;;;;;;;22.53;51.51;101168.70;1734413;81;26507;-55
2022/07/02 02:28:47;;;;;;;;;;;;;;;22.51;52.29;101175.23;1729966;80;25778;-55
2022/07/02 02:31:14;;;;;;;;;;;;;;;22.53;52.45;101179.13;1742006;80;28154;-55
2022/07/02 02:33:41;;;;;;;;;;;;;;;22.54;52.07;101182.19;1733909;80;25905;-55
2022/07/02 02:36:08;;;;;;;;;;;;;;;22.56;52.37;101186.09;1721675;81;25507;-55
2022/07/02 02:38:36;;;;;;;;;;;;;;;22.57;52.32;101185.04;1728958;81;25880;-55
2022/07/02 02:41:05;;;;;;;;;;;;;;;22.60;52.77;101188.75;1727570;81;25693;-55
2022/07/02 02:43:33;;;;;;;;;;;;;;;22.62;52.77;101179.27;1720046;81;28539;-56
2022/07/02 02:46:01;;;;;;;;;;;;;;;22.68;52.90;101185.82;1710715;81;25944;-56
2022/07/02 02:48:29;;;;;;;;;;;;;;;22.72;52.45;101179.39;1699479;82;26447;-55
2022/07/02 02:50:56;;;;;;;;;;;;;;;22.76;52.45;101182.89;1695706;82;26531;-55
2022/07/02 02:53:22;;;;;;;;;;;;;;;22.80;52.55;101188.29;1733729;81;25430;-54
2022/07/02 02:55:49;;;;;;;;;;;;;;;22.86;52.60;101187.13;1725388;80;27818;-55
2022/07/02 02:58:16;;;;;;;;;;;;;;;22.89;52.60;101184.81;1726524;81;25846;-56
2022/07/02 03:00:43;;;;;;;;;;;;;;;22.92;52.99;101188.52;1727289;81;25780;-55
2022/07/02 03:03:09;;;;;;;;;;;;;;;22.92;53.38;101191.27;1726136;81;25876;-56
2022/07/02 03:05:36;;;;;;;;;;;;;;;22.94;53.64;101191.91;1729650;81;25793;-56
2022/07/02 03:08:05;;;;;;;;;;;;;;;23.00;53.44;101199.80;1720684;81;27498;-53
2022/07/02 03:10:31;;;;;;;;;;;;;;;23.04;53.42;101201.09;1727496;80;25777;-55
2022/07/02 03:12:58;;;;;;;;;;;;;;;23.08;53.62;101201.52;1729009;80;25452;-55
2022/07/02 03:15:25;;;;;;;;;;;;;;;23.11;53.42;101204.68;1726903;81;26439;-55
2022/07/02 03:17:52;;;;;;;;;;;;;;;23.13;53.73;101205.33;1720501;81;25304;-55
2022/07/02 03:20:18;;;;;;;;;;;;;;;23.16;54.12;101208.17;1721106;80;27559;-55
2022/07/02 03:22:45;;;;;;;;;;;;;;;23.18;53.74;101210.69;1725452;80;25888;-55
2022/07/02 03:25:12;;;;;;;;;;;;;;;23.18;54.30;101210.22;1741182;80;25852;-56
2022/07/02 03:27:38;;;;;;;;;;;;;;;23.19;54.30;101212.42;1724606;81;25851;-56
2022/07/02 03:30:07;;;;;;;;;;;;;;;23.18;54.45;101214.81;1728837;80;25877;-55
2022/07/02 03:32:34;;;;;;;;;;;;;;;23.20;54.72;101224.58;1728561;81;28246;-53
2022/07/02 03:35:00;;;;;;;;;;;;;;;23.23;54.56;101215.91;1722427;82;25867;-55
2022/07/02 03:37:28;;;;;;;;;;;;;;;23.26;54.29;101222.36;1728234;81;25800;-55
2022/07/02 03:39:55;;;;;;;;;;;;;;;23.29;54.47;101221.95;1727811;81;25819;-55
2022/07/02 03:42:21;;;;;;;;;;;;;;;23.34;54.55;101228.19;1739521;80;25784;-56
2022/07/02 03:44:48;;;;;;;;;;;;;;;23.39;54.38;101231.67;1727757;80;27558;-56
2022/07/02 03:47:15;;;;;;;;;;;;;;;23.44;54.44;101225.01;1735506;80;25829;-56
2022/07/02 03:49:42;;;;;;;;;;;;;;;23.50;54.25;101220.03;1726660;81;26495;-55
2022/07/02 03:52:08;;;;;;;;;;;;;;;23.55;54.52;101217.52;1710083;80;25813;-56
2022/07/02 03:54:35;;;;;;;;;;;;;;;23.59;55.00;101218.77;1703846;82;25811;-55
2022/07/02 03:57:02;;;;;;;;;;;;;;;23.64;55.17;101224.99;1709782;83;28485;-56
2022/07/02 03:59:29;;;;;;;;;;;;;;;23.69;55.10;101216.98;1691273;82;25475;-56
2022/07/02 04:01:55;;;;;;;;;;;;;;;23.74;55.52;101218.55;1689609;82;25915;-54
2022/07/02 04:04:22;;;;;;;;;;;;;;;23.78;55.30;101218.13;1709725;82;25854;-56
2022/07/02 04:06:48;;;;;;;;;;;;;;;23.81;55.41;101210.81;1707463;81;25969;-55
2022/07/02 04:09:15;;;;;;;;;;;;;;;23.85;55.60;101212.92;1701683;83;27476;-55
2022/07/02 04:11:41;;;;;;;;;;;;;;;23.88;55.77;101210.30;1700974;82;25844;-56
2022/07/02 04:14:08;;;;;;;;;;;;;;;23.91;56.06;101222.22;1690282;83;25724;-56
2022/07/02 04:16:35;;;;;;;;;;;;;;;23.93;56.23;101222.85;1699353;82;25899;-55
2022/07/02 04:19:02;;;;;;;;;;;;;;;23.97;56.58;101226.91;1710779;81;25759;-55
2022/07/02 04:21:28;;;;;;;;;;;;;;;24.00;56.23;101222.88;1699652;82;27543;-56
2022/07/02 04:23:57;;;;;;;;;;;;;;;24.05;56.02;101228.56;1714528;82;25791;-56
2022/07/02 04:26:23;;;;;;;;;;;;;;;24.07;56.27;101230.56;1701372;83;25840;-56
2022/07/02 04:28:49;;;;;;;;;;;;;;;24.12;56.04;101235.42;1704465;82;26582;-55
2022/07/02 04:31:16;;;;;;;;;;;;;;;24.19;56.07;101241.73;1699891;82;25878;-55
2022/07/02 04:33:45;;;;;;;;;;;;;;;24.23;56.03;101244.38;1696415;83;27489;-55
2022/07/02 04:36:12;;;;;;;;;;;;;;;24.30;55.59;101244.34;1705330;82;26521;-56
2022/07/02 04:38:39;;;;;;;;;;;;;;;24.35;55.57;101248.68;1696226;83;25828;-56
2022/07/02 04:41:05;;;;;;;;;;;;;;;24.39;55.64;101249.91;1703776;83;27983;-56
2022/07/02 04:43:32;;;;;;;;;;;;;;;24.45;55.81;101250.45;1709973;82;25803;-57
2022/07/02 04:45:58;;;;;;;;;;;;;;;24.47;56.02;101247.47;1690023;83;27474;-56
2022/07/02 04:48:25;;;;;;;;;;;;;;;24.47;56.32;101243.34;1707078;83;25915;-55
2022/07/02 04:50:51;;;;;;;;;;;;;;;24.51;56.40;101239.11;1709159;82;25726;-56
2022/07/02 04:53:18;;;;;;;;;;;;;;;24.53;56.83;101238.34;1727824;82;25958;-56
2022/07/02 04:55:44;;;;;;;;;;;;;;;24.56;56.54;101244.79;1731258;80;26189;-56
2022/07/02 04:58:10;;;;;;;;;;;;;;;24.59;56.53;101240.23;1728793;82;27479;-56
2022/07/02 05:00:37;;;;;;;;;;;;;;;24.65;56.90;101242.10;1734843;81;25548;-56
2022/07/02 05:03:03;;;;;;;;;;;;;;;24.69;56.80;101233.77;1723647;82;25869;-56
2022/07/02 05:05:30;;;;;;;;;;;;;;;24.74;56.80;101230.36;1716733;81;25979;-55
2022/07/02 05:07:57;;;;;;;;;;;;;;;24.82;56.62;101237.50;1716528;81;25813;-56
2022/07/02 05:10:24;;;;;;;;;;;;;;;24.88;56.47;101230.27;1722782;81;27524;-56
2022/07/02 05:12:51;;;;;;;;;;;;;;;24.92;56.50;101228.78;1732477;80;25728;-55
2022/07/02 05:15:18;;;;;;;;;;;;;;;24.95;56.32;101229.70;1732388;81;25895;-56
2022/07/02 05:17:44;;;;;;;;;;;;;;;24.98;56.35;101231.47;1721530;81;25865;-56
2022/07/02 05:20:11;;;;;;;;;;;;;;;25.03;56.57;101236.31;1724583;82;25806;-55
2022/07/02 05:22:38;;;;;;;;;;;;;;;25.06;56.46;101237.25;1719822;81;27663;-57
2022/07/02 05:25:06;;;;;;;;;;;;;;;25.12;56.61;101245.16;1736636;80;25870;-56
2022/07/02 05:27:33;;;;;;;;;;;;;;;25.16;56.49;101233.48;1717833;81;25784;-56
2022/07/02 05:29:59;;;;;;;;;;;;;;;25.19;56.21;101241.83;1726634;81;25824;-56
2022/07/02 05:32:26;;;;;;;;;;;;;;;25.22;56.87;101244.66;1730000;81;25740;-56
2022/07/02 05:34:52;;;;;;;;;;;;;;;25.26;56.70;101245.37;1718260;80;27473;-56
2022/07/02 05:37:19;;;;;;;;;;;;;;;25.29;56.58;101244.94;1720724;81;25721;-56
2022/07/02 05:39:45;;;;;;;;;;;;;;;25.34;56.53;101248.91;1734733;82;25862;-56
2022/07/02 05:42:12;;;;;;;;;;;;;;;25.40;56.35;101245.31;1718682;81;25936;-56
2022/07/02 05:44:38;;;;;;;;;;;;;;;25.45;56.70;101244.09;1739318;81;25412;-56
2022/07/02 05:47:06;;;;;;;;;;;;;;;25.52;56.62;101242.12;1721042;81;27494;-56
2022/07/02 05:49:33;;;;;;;;;;;;;;;25.60;56.27;101241.02;1723681;81;26461;-56
2022/07/02 05:52:00;;;;;;;;;;;;;;;25.69;56.44;101242.93;1717289;81;25982;-56
2022/07/02 05:54:27;;;;;;;;;;;;;;;25.78;56.34;101248.46;1698525;82;25888;-56
2022/07/02 05:56:53;;;;;;;;;;;;;;;25.84;56.16;101239.83;1703069;82;25867;-56
2022/07/02 05:59:22;;;;;;;;;;;;;;;25.92;56.07;101243.67;1703876;82;27574;-56
2022/07/02 06:01:49;;;;;;;;;;;;;;;25.98;55.88;101241.92;1687715;83;25815;-55
2022/07/02 06:04:16;;;;;;;;;;;;;;;26.04;55.87;101245.98;1699291;83;25753;-56
2022/07/02 06:09:27;;;;;;;;;;;;;;;26.19;55.00;101251.69;1698182;81;25905;-55
2022/07/02 06:11:54;;;;;;;;;;;;;;;26.30;54.66;101250.11;1692570;82;28364;-57
2022/07/02 06:14:21;;;;;;;;;;;;;;;26.37;54.54;101252.24;1708586;83;25843;-56
2022/07/02 06:16:48;;;;;;;;;;;;;;;26.44;54.47;101258.52;1697487;82;26591;-55
2022/07/02 06:19:14;;;;;;;;;;;;;;;26.48;54.39;101251.48;1700317;82;25830;-56
2022/07/02 06:21:41;;;;;;;;;;;;;;;26.54;54.27;101257.44;1699562;82;25792;-56
2022/07/02 06:24:11;;;;;;;;;;;;;;;26.61;54.13;101267.02;1700956;82;27558;-56
2022/07/02 06:26:37;;;;;;;;;;;;;;;26.67;53.88;101259.19;1701425;82;25795;-55
2022/07/02 06:29:51;;;;;;;;;;;;;;;26.73;53.50;101261.55;1697742;82;25874;-56
2022/07/02 06:32:17;;;;;;;;;;;;;;;26.78;53.20;101263.66;1731622;81;26607;-56
2022/07/02 06:34:44;;;;;;;;;;;;;;;26.85;52.82;101260.26;1733524;81;25799;-56
2022/07/02 06:37:10;;;;;;;;;;;;;;;26.91;52.58;101251.58;1729983;80;28371;-55
2022/07/02 06:39:37;;;;;;;;;;;;;;;27.00;52.44;101257.08;1729375;81;25896;-56
2022/07/02 06:42:20;;;;;;;;;;;;;;;27.08;51.80;101258.13;1730331;80;25674;-55
2022/07/02 06:44:49;;;;;;;;;;;;;;;27.16;51.39;101251.44;1730144;80;25855;-56
2022/07/02 06:47:15;;;;;;;;;;;;;;;27.28;50.47;101248.70;1732761;80;25935;-55
2022/07/02 06:49:43;;;;;;;;;;;;;;;27.36;49.65;101246.97;1725221;81;27764;-55
2022/07/02 06:52:10;;;;;;;;;;;;;;;27.43;49.35;101246.91;1720279;81;25811;-54
2022/07/02 06:54:37;;;;;;;;;;;;;;;27.50;49.24;101250.39;1708859;81;25864;-56
2022/07/02 06:57:05;;;;;;;;;;;;;;;27.56;49.35;101244.45;1703673;81;25891;-56
2022/07/02 06:59:32;;;;;;;;;;;;;;;27.64;49.14;101255.98;1704573;82;25812;-56
2022/07/02 07:01:59;;;;;;;;;;;;;;;27.72;48.98;101252.56;1706545;82;27479;-56
2022/07/02 07:04:27;;;;;;;;;;;;;;;27.78;48.78;101246.92;1701835;82;26002;-56
2022/07/02 07:06:59;;;;;;;;;;;;;;;27.88;48.78;101252.39;1705723;83;25909;-56
2022/07/02 07:09:27;;;;;;;;;;;;;;;27.96;48.57;101254.27;1701833;82;26619;-56
2022/07/02 07:11:55;;;;;;;;;;;;;;;28.04;48.23;101251.66;1707111;82;26009;-55
2022/07/02 07:14:22;;;;;;;;;;;;;;;28.12;47.88;101251.88;1705151;81;27485;-55
2022/07/02 07:16:49;;;;;;;;;;;;;;;28.21;47.80;101248.17;1705005;83;26415;-56
2022/07/02 07:19:16;;;;;;;;;;;;;;;28.33;47.93;101255.09;1701083;83;25800;-56
2022/07/02 07:21:43;;;;;;;;;;;;;;;28.45;47.16;101253.67;1712342;83;25766;-55
2022/07/02 07:24:10;;;;;;;;;;;;;;;28.55;46.62;101255.28;1712229;80;25723;-56
2022/07/02 07:26:38;;;;;;;;;;;;;;;28.65;46.50;101259.61;1706704;82;27478;-55
2022/07/02 07:29:08;;;;;;;;;;;;;;;28.76;46.22;101260.70;1702713;82;25709;-55
2022/07/02 07:31:35;;;;;;;;;;;;;;;28.86;45.66;101251.75;1711543;82;25491;-55
2022/07/02 07:34:03;;;;;;;;;;;;;;;28.95;45.86;101258.57;1699912;83;25888;-55
2022/07/02 07:36:30;;;;;;;;;;;;;;;29.05;45.86;101253.23;1713378;81;25938;-56
2022/07/02 07:38:57;;;;;;;;;;;;;;;29.18;45.18;101260.94;1712702;82;27599;-56
2022/07/02 07:41:24;;;;;;;;;;;;;;;29.26;44.82;101256.38;1713181;81;26531;-55
2022/07/02 07:43:53;;;;;;;;;;;;;;;29.36;44.77;101266.25;1708696;83;25806;-55
2022/07/02 07:46:21;;;;;;;;;;;;;;;29.49;42.61;101264.26;1683858;82;25875;-56
2022/07/02 07:48:48;;;;;;;;;;;;;;;29.63;43.10;101262.81;1690290;83;25675;-55
2022/07/02 07:51:15;;;;;;;;;;;;;;;29.78;42.06;101269.72;1694351;83;27706;-55
2022/07/02 07:53:43;;;;;;;;;;;;;;;29.95;40.90;101273.87;1711804;82;25905;-55
2022/07/02 07:56:10;;;;;;;;;;;;;;;30.08;40.38;101278.22;1692779;83;25515;-56
2022/07/02 07:58:37;;;;;;;;;;;;;;;30.21;39.06;101279.25;1684925;82;25987;-56
2022/07/02 08:01:03;;;;;;;;;;;;;;;30.33;39.80;101282.47;1699189;82;25451;-56
2022/07/02 08:03:30;;;;;;;;;;;;;;;30.47;38.32;101283.75;1701398;82;28241;-56
2022/07/02 08:05:57;;;;;;;;;;;;;;;30.63;38.33;101289.52;1686575;83;25375;-55
2022/07/02 08:08:24;;;;;;;;;;;;;;;30.79;38.21;101287.24;1703196;83;25859;-55
2022/07/02 08:10:51;;;;;;;;;;;;;;;30.91;36.97;101288.48;1701446;83;26370;-56
2022/07/02 08:13:17;;;;;;;;;;;;;;;31.00;36.53;101289.69;1702552;82;25834;-56
2022/07/02 08:15:44;;;;;;;;;;;;;;;31.13;34.35;101289.86;1723425;82;27534;-55
2022/07/02 08:18:12;;;;;;;;;;;;;;;31.29;32.10;101294.98;1713497;82;25904;-55
2022/07/02 08:20:38;;;;;;;;;;;;;;;31.40;32.97;101295.95;1725119;81;26120;-56
2022/07/02 08:23:05;;;;;;;;;;;;;;;31.53;33.28;101301.05;1713569;82;26431;-56
2022/07/02 08:25:32;;;;;;;;;;;;;;;31.60;33.77;101294.45;1726942;81;25806;-55
2022/07/02 08:27:59;;;;;;;;;;;;;;;31.66;33.89;101288.64;1726988;81;27486;-55
2022/07/02 08:30:25;;;;;;;;;;;;;;;31.78;33.62;101293.22;1717251;82;25887;-55
2022/07/02 08:32:52;;;;;;;;;;;;;;;31.85;32.20;101286.86;1713706;82;26332;-55
2022/07/02 08:35:19;;;;;;;;;;;;;;;31.86;32.89;101284.94;1697655;83;26482;-56
2022/07/02 08:37:45;;;;;;;;;;;;;;;31.95;31.32;101285.55;1710520;82;25734;-56
2022/07/02 08:40:12;;;;;;;;;;;;;;;32.02;30.21;101290.88;1714597;82;27535;-55
2022/07/02 08:42:42;;;;;;;;;;;;;;;32.14;30.03;101294.28;1686785;83;26163;-56
2022/07/02 08:45:10;;;;;;;;;;;;;;;32.20;31.09;101290.16;1682077;82;25746;-55
2022/07/02 08:47:37;;;;;;;;;;;;;;;32.28;28.72;101296.62;1695186;83;25844;-55
2022/07/02 08:50:04;;;;;;;;;;;;;;;32.29;30.37;101296.34;1709819;81;25724;-55
2022/07/02 08:52:31;;;;;;;;;;;;;;;32.41;29.33;101297.52;1716527;82;27532;-56
2022/07/02 08:54:57;;;;;;;;;;;;;;;32.52;29.61;101289.21;1730808;80;25800;-55
2022/07/02 08:57:27;;;;;;;;;;;;;;;32.59;29.63;101294.83;1719178;81;25857;-56
2022/07/02 08:59:54;;;;;;;;;;;;;;;32.70;30.03;101287.34;1714906;81;26685;-55
2022/07/02 09:02:21;;;;;;;;;;;;;;;32.90;29.63;101288.55;1712780;81;25446;-55
2022/07/02 09:04:49;;;;;;;;;;;;;;;33.11;29.43;101295.56;1717647;81;28270;-56
2022/07/02 09:07:17;;;;;;;;;;;;;;;33.30;29.71;101291.14;1717363;81;26334;-56
2022/07/02 09:09:45;;;;;;;;;;;;;;;33.48;29.43;101289.77;1721702;81;25701;-55
2022/07/02 09:12:15;;;;;;;;;;;;;;;33.62;28.41;101288.65;1716268;82;25865;-56
2022/07/02 09:14:43;;;;;;;;;;;;;;;33.70;27.77;101294.23;1724788;81;25728;-55
2022/07/02 09:17:12;;;;;;;;;;;;;;;33.81;27.29;101301.45;1703638;81;28391;-56
2022/07/02 09:19:39;;;;;;;;;;;;;;;33.93;27.12;101291.99;1730857;80;25812;-56
2022/07/02 09:22:07;;;;;;;;;;;;;;;34.11;26.22;101294.19;1711721;82;25714;-56
2022/07/02 09:24:36;;;;;;;;;;;;;;;34.27;26.48;101293.59;1708754;81;25852;-55
2022/07/02 09:27:06;;;;;;;;;;;;;;;34.36;26.68;101284.05;1715238;82;25892;-55
2022/07/02 09:29:47;;;;;;;;;;;;;;;34.60;27.17;101290.42;1698210;82;28285;-56
2022/07/02 09:32:15;;;;;;;;;;;;;;;34.81;25.83;101285.56;1700009;82;25767;-55
2022/07/02 09:34:44;;;;;;;;;;;;;;;35.04;25.39;101279.02;1712792;81;25891;-55
2022/07/02 09:37:20;;;;;;;;;;;;;;;35.10;25.40;101273.64;1693754;82;25840;-56
2022/07/02 09:39:48;;;;;;;;;;;;;;;35.16;25.03;101278.09;1686438;83;25451;-56
2022/07/02 09:42:26;;;;;;;;;;;;;;;35.35;25.71;101282.41;1725367;81;28579;-55
2022/07/02 09:44:53;;;;;;;;;;;;;;;35.68;26.22;101279.91;1727945;80;25479;-56
2022/07/02 09:47:33;;;;;;;;;;;;;;;36.08;25.62;101280.39;1745800;80;25802;-56
2022/07/02 09:50:06;;;;;;;;;;;;;;;36.41;24.06;101278.63;1756431;80;25917;-56
2022/07/02 09:52:33;;;;;;;;;;;;;;;36.64;24.37;101283.08;1749092;80;25919;-56
2022/07/02 09:55:00;;;;;;;;;;;;;;;37.00;24.57;101272.78;1755240;80;27653;-56
2022/07/02 09:57:28;;;;;;;;;;;;;;;37.46;24.24;101272.65;1742171;80;25889;-56
2022/07/02 10:00:03;;;;;;;;;;;;;;;37.88;23.94;101276.95;1754582;80;25703;-56
2022/07/02 10:02:32;;;;;;;;;;;;;;;38.21;23.95;101279.69;1757045;80;25835;-56
2022/07/02 10:05:02;;;;;;;;;;;;;;;38.55;23.20;101278.44;1751539;80;25697;-56
2022/07/02 10:07:29;;;;;;;;;;;;;;;38.71;22.13;101278.09;1753881;80;27579;-56
2022/07/02 10:09:56;;;;;;;;;;;;;;;38.75;22.47;101278.55;1743346;81;25839;-56
2022/07/02 10:12:23;;;;;;;;;;;;;;;39.14;22.41;101277.66;1754288;80;25764;-56
2022/07/02 10:14:52;;;;;;;;;;;;;;;39.63;22.45;101279.26;1751618;80;26560;-56
2022/07/02 10:17:19;;;;;;;;;;;;;;;39.55;21.68;101275.26;1740717;80;25719;-56
2022/07/02 10:19:47;;;;;;;;;;;;;;;39.70;21.73;101276.88;1702780;81;27487;-56
2022/07/02 10:22:14;;;;;;;;;;;;;;;40.08;21.32;101285.40;1691930;83;25929;-56
2022/07/02 10:24:41;;;;;;;;;;;;;;;40.50;21.16;101288.69;1687235;82;25754;-55
2022/07/02 10:27:08;;;;;;;;;;;;;;;40.90;20.12;101279.91;1697178;82;25860;-57
2022/07/02 10:29:38;;;;;;;;;;;;;;;41.49;20.05;101288.45;1687526;83;25407;-56
2022/07/02 10:32:25;;;;;;;;;;;;;;;41.89;18.83;101282.52;1688353;83;27536;-55
2022/07/02 10:35:01;;;;;;;;;;;;;;;42.35;17.98;101278.03;1689744;82;26429;-57
2022/07/02 10:37:27;;;;;;;;;;;;;;;42.57;18.15;101270.98;1694760;83;25986;-56
2022/07/02 10:39:57;;;;;;;;;;;;;;;43.00;18.27;101274.88;1691954;81;25840;-56
2022/07/02 10:42:27;;;;;;;;;;;;;;;43.60;18.03;101278.94;1688419;82;25720;-56
2022/07/02 10:44:53;;;;;;;;;;;;;;;44.15;17.54;101266.59;1693739;83;27523;-56
2022/07/02 10:47:25;;;;;;;;;;;;;;;43.44;17.32;101258.92;1714818;81;25496;-56
2022/07/02 10:49:59;;;;;;;;;;;;;;;42.40;17.47;101262.86;1717420;81;25460;-56
2022/07/02 10:52:49;;;;;;;;;;;;;;;41.69;17.89;101267.97;1726807;81;25878;-56
2022/07/02 10:55:29;;;;;;;;;;;;;;;40.47;18.27;101264.00;1719717;81;26041;-57
2022/07/02 10:58:00;;;;;;;;;;;;;;;39.44;19.45;101253.59;1719341;81;27621;-56
2022/07/02 11:00:38;;;;;;;;;;;;;;;38.96;19.59;101257.83;1717516;81;25918;-56
2022/07/02 11:03:20;;;;;;;;;;;;;;;38.70;20.62;101254.78;1726783;81;25834;-56
2022/07/02 11:05:54;;;;;;;;;;;;;;;39.28;20.60;101260.19;1718994;81;25880;-55
2022/07/02 11:08:43;;;;;;;;;;;;;;;40.22;19.70;101257.95;1719609;81;25806;-56
2022/07/02 11:11:22;;;;;;;;;;;;;;;41.04;19.15;101260.02;1722003;80;27660;-56
2022/07/02 11:13:52;;;;;;;;;;;;;;;41.93;17.76;101258.09;1724170;80;26098;-57
2022/07/02 11:16:37;;;;;;;;;;;;;;;42.59;17.52;101256.73;1723737;81;26424;-56
2022/07/02 11:19:03;;;;;;;;;;;;;;;43.27;17.14;101254.86;1714427;82;26074;-57
2022/07/02 11:21:29;;;;;;;;;;;;;;;43.86;16.01;101250.87;1732550;80;25861;-57
2022/07/02 11:23:58;;;;;;;;;;;;;;;44.31;15.88;101249.69;1740243;80;46366;-56
2022/07/02 11:26:27;;;;;;;;;;;;;;;44.74;15.38;101255.28;1716943;81;25650;-57
2022/07/02 11:28:54;;;;;;;;;;;;;;;45.21;15.40;101249.58;1728926;81;26623;-56
2022/07/02 11:31:23;;;;;;;;;;;;;;;45.66;14.44;101253.81;1720350;81;25790;-56
2022/07/02 11:33:52;;;;;;;;;;;;;;;46.13;14.21;101243.03;1729152;80;25871;-56
2022/07/02 11:36:20;;;;;;;;;;;;;;;46.28;13.88;101242.77;1731652;81;27386;-56
2022/07/02 11:38:48;;;;;;;;;;;;;;;45.05;14.52;101241.02;1731913;80;25946;-56
2022/07/02 11:41:27;;;;;;;;;;;;;;;44.14;14.94;101246.51;1719413;81;25877;-56
2022/07/02 11:43:58;;;;;;;;;;;;;;;42.93;15.87;101250.57;1725179;81;25828;-56
2022/07/02 11:46:26;;;;;;;;;;;;;;;42.52;16.42;101248.79;1722657;81;25907;-56
2022/07/02 11:48:55;;;;;;;;;;;;;;;43.09;16.06;101249.91;1750919;80;27470;-56
2022/07/02 11:51:22;;;;;;;;;;;;;;;43.75;15.54;101242.59;1696768;82;25799;-56
2022/07/02 11:53:57;;;;;;;;;;;;;;;44.37;15.35;101240.59;1698581;82;25466;-56
2022/07/02 11:56:24;;;;;;;;;;;;;;;45.19;15.19;101239.77;1684107;83;25849;-56
2022/07/02 11:58:51;;;;;;;;;;;;;;;46.02;13.96;101227.16;1697216;83;27267;-56
2022/07/02 12:01:23;;;;;;;;;;;;;;;46.61;12.51;101222.98;1701776;81;27479;-57
2022/07/02 12:03:51;;;;;;;;;;;;;;;46.59;12.82;101226.80;1725198;80;25741;-57
2022/07/02 12:06:18;;;;;;;;;;;;;;;46.38;12.85;101233.69;1736429;81;25860;-56
2022/07/02 12:08:45;;;;;;;;;;;;;;;46.80;13.37;101225.64;1724193;82;25890;-56
2022/07/02 12:11:15;;;;;;;;;;;;;;;47.34;12.93;101218.14;1732956;81;25781;-57
2022/07/02 12:13:43;;;;;;;;;;;;;;;47.80;12.76;101217.33;1715208;82;27503;-56
2022/07/02 12:16:16;;;;;;;;;;;;;;;48.34;11.74;101218.78;1726681;81;25865;-57
2022/07/02 12:18:42;;;;;;;;;;;;;;;48.20;10.97;101213.67;1727793;80;25752;-56
2022/07/02 12:21:12;;;;;;;;;;;;;;;47.97;11.61;101210.27;1717651;82;26637;-57
2022/07/02 12:23:50;;;;;;;;;;;;;;;48.28;11.79;101202.60;1715796;82;25518;-57
2022/07/02 12:26:25;;;;;;;;;;;;;;;48.58;11.33;101206.86;1721311;82;27655;-57
2022/07/02 12:31:53;;;;;;;;;;;;;;;47.17;11.54;101206.05;1728003;81;25813;-56
2022/07/02 12:34:24;;;;;;;;;;;;;;;47.20;12.19;101199.37;1706043;81;25866;-57
2022/07/02 12:36:57;;;;;;;;;;;;;;;47.84;11.45;101201.70;1712182;81;25948;-57
2022/07/02 12:39:26;;;;;;;;;;;;;;;48.36;11.42;101190.08;1718068;82;27544;-57
2022/07/02 12:41:53;;;;;;;;;;;;;;;48.55;10.19;101192.55;1720335;82;26177;-56
2022/07/02 12:44:22;;;;;;;;;;;;;;;48.29;10.51;101189.15;1713044;82;25885;-56
2022/07/02 12:46:51;;;;;;;;;;;;;;;48.39;11.53;101187.05;1744608;80;25777;-57
2022/07/02 12:49:21;;;;;;;;;;;;;;;48.73;11.01;101177.08;1746212;81;25942;-57
2022/07/02 12:51:52;;;;;;;;;;;;;;;49.21;10.39;101177.81;1756078;80;27588;-57